OMRK/RKT METAR and TAF weather

Enter ICAO airport designator
Station Type Date Time Source
OMRK METAR 2020/12/05 06:00 UTC NOAA

OMRK 050600Z 17007K 140V200 CAVOK 27/20 Q1014 A2995(SPECI)


Station Type Date Time Source
OMRK Decoded METAR 2020/12/05 06:00 UTC NOAA

Ras Al Khaimah International Airport, United Arab Emirates (OMRK) 25-37N 055-56E 31M
Dec 05, 2020 - 01:00 AM EST / 2020.12.05 0600 UTC
Visibility: greater than 7 mile(s):0
Temperature: 80 F (27 C)
Dew Point: 68 F (20 C)
Relative Humidity: 65%
Pressure (altimeter): 29.95 in. Hg (1014 hPa)
ob: OMRK 050600Z 17007K 140V200 CAVOK 27/20 Q1014 A2995(SPECI)
cycle: 6

Station Type Date Time Source
OMRK TAF 2020/12/05 06:06 UTC NOAA

TAF OMRK 050500Z 0506/0612 21005KT 6000 NSC
BECMG 0506/0508 33010KT
BECMG 0514/0516 VRB02KT PROB30 0517/0522 3000 BR PROB30 0522/0605 0100 FG VV///
BECMG 0603/0605 19010KT
BECMG 0609/0611 28010KT

Example: see airport list